createdAt,value
2022-09-10T00:02:10.992Z,1.20
2022-09-10T00:04:37.573Z,1.10
2022-09-10T00:07:04.151Z,1.00
2022-09-10T00:09:30.699Z,1.47
2022-09-10T00:11:57.393Z,1.80
2022-09-10T00:14:24.487Z,1.50
2022-09-10T00:16:51.116Z,1.60
2022-09-10T00:19:18.040Z,1.53
2022-09-10T00:21:44.673Z,1.37
2022-09-10T00:24:11.340Z,1.50
2022-09-10T00:26:39.635Z,1.57
2022-09-10T00:29:07.428Z,1.50
2022-09-10T00:31:34.497Z,1.60
2022-09-10T00:34:02.006Z,1.60
2022-09-10T00:36:30.495Z,1.50
2022-09-10T00:38:58.650Z,1.93
2022-09-10T00:41:26.012Z,1.43
2022-09-10T00:43:59.683Z,1.37
2022-09-10T00:46:36.088Z,1.80
2022-09-10T00:49:05.758Z,1.90
2022-09-10T00:51:33.848Z,1.83
2022-09-10T00:54:01.513Z,1.83
2022-09-10T00:56:28.744Z,1.60
2022-09-10T00:58:55.881Z,1.57
2022-09-10T01:01:23.236Z,1.77
2022-09-10T01:03:50.644Z,1.73
2022-09-10T01:06:18.487Z,1.70
2022-09-10T01:08:45.361Z,1.80
2022-09-10T01:11:34.550Z,1.60
2022-09-10T01:14:20.279Z,1.73
2022-09-10T01:16:59.029Z,2.00
2022-09-10T01:19:32.013Z,1.90
2022-09-10T01:22:20.719Z,1.63
2022-09-10T01:24:55.864Z,1.90
2022-09-10T01:27:26.832Z,2.20
2022-09-10T01:30:06.082Z,2.23
2022-09-10T01:32:37.230Z,2.23
2022-09-10T01:35:07.340Z,2.33
2022-09-10T01:37:35.687Z,1.63
2022-09-10T01:40:03.261Z,2.10
2022-09-10T01:42:33.274Z,2.37
2022-09-10T01:45:01.022Z,2.53
2022-09-10T01:47:54.488Z,2.10
2022-09-10T01:50:31.128Z,2.10
2022-09-10T01:53:02.435Z,1.93
2022-09-10T01:55:53.938Z,2.50
2022-09-10T01:58:29.541Z,2.13
2022-09-10T02:01:21.794Z,1.90
2022-09-10T02:03:50.648Z,2.30
2022-09-10T02:06:19.509Z,2.47
2022-09-10T02:08:49.351Z,2.50
2022-09-10T02:11:16.162Z,2.50
2022-09-10T02:13:47.462Z,2.60
2022-09-10T02:16:37.854Z,2.07
2022-09-10T02:19:05.813Z,2.80
2022-09-10T02:21:32.527Z,2.20
2022-09-10T02:24:02.161Z,2.33
2022-09-10T02:26:28.760Z,2.40
2022-09-10T02:28:55.874Z,2.40
2022-09-10T02:31:22.661Z,2.50
2022-09-10T02:33:51.274Z,3.07
2022-09-10T02:36:17.918Z,2.60
2022-09-10T02:38:44.604Z,3.00
2022-09-10T02:41:11.572Z,2.50
2022-09-10T02:43:38.454Z,2.47
2022-09-10T02:46:08.872Z,2.10
2022-09-10T02:48:37.358Z,2.83
2022-09-10T02:51:04.455Z,2.90
2022-09-10T02:53:31.742Z,3.07
2022-09-10T02:56:03.196Z,2.67
2022-09-10T02:58:34.203Z,3.13
2022-09-10T03:01:09.568Z,2.53
2022-09-10T03:03:37.247Z,2.70
2022-09-10T03:06:04.606Z,2.30
2022-09-10T03:08:31.459Z,2.77
2022-09-10T03:10:59.926Z,2.50
2022-09-10T03:13:27.744Z,2.87
2022-09-10T03:15:56.425Z,2.00
2022-09-10T03:18:23.243Z,2.30
2022-09-10T03:20:50.401Z,2.47
2022-09-10T03:23:17.438Z,2.53
2022-09-10T03:25:47.953Z,3.13
2022-09-10T03:28:16.801Z,2.50
2022-09-10T03:30:43.802Z,2.63
2022-09-10T03:33:11.875Z,2.50
2022-09-10T03:35:41.047Z,2.53
2022-09-10T03:38:07.638Z,2.87
2022-09-10T03:40:34.302Z,2.80
2022-09-10T03:43:01.417Z,2.80
2022-09-10T03:45:29.764Z,2.50
2022-09-10T03:47:56.364Z,2.73
2022-09-10T03:50:23.356Z,2.60
2022-09-10T03:52:50.963Z,2.70
2022-09-10T03:55:19.165Z,2.80
2022-09-10T03:57:46.061Z,2.80
2022-09-10T04:00:14.676Z,2.70
2022-09-10T04:02:46.534Z,2.33
2022-09-10T04:05:13.891Z,2.40
2022-09-10T04:07:40.496Z,2.60
2022-09-10T04:10:07.501Z,2.40
2022-09-10T04:12:34.073Z,2.30
2022-09-10T04:15:03.626Z,2.57
2022-09-10T04:17:30.976Z,2.80
2022-09-10T04:19:57.563Z,2.77
2022-09-10T04:22:24.761Z,2.87
2022-09-10T04:24:51.423Z,2.90
2022-09-10T04:27:18.010Z,2.57
2022-09-10T04:29:44.660Z,3.00
2022-09-10T04:32:12.598Z,3.10
2022-09-10T04:34:39.276Z,3.73
2022-09-10T04:37:06.477Z,3.20
2022-09-10T04:39:33.764Z,2.67
2022-09-10T04:42:01.033Z,2.93
2022-09-10T04:44:29.548Z,3.40
2022-09-10T04:46:56.739Z,2.90
2022-09-10T04:49:25.182Z,2.57
2022-09-10T04:51:52.764Z,2.40
2022-09-10T04:54:19.923Z,2.87
2022-09-10T04:56:47.594Z,2.17
2022-09-10T04:59:14.281Z,2.67
2022-09-10T05:01:43.109Z,2.80
2022-09-10T05:04:09.975Z,2.30
2022-09-10T05:06:37.948Z,2.70
2022-09-10T05:09:06.666Z,2.57
2022-09-10T05:11:33.406Z,2.60
2022-09-10T05:14:00.110Z,2.40
2022-09-10T05:16:29.291Z,2.47
2022-09-10T05:18:57.165Z,2.90
2022-09-10T05:21:25.133Z,2.47
2022-09-10T05:23:54.006Z,3.00
2022-09-10T05:26:20.676Z,2.77
2022-09-10T05:28:47.792Z,3.00
2022-09-10T05:31:17.301Z,2.90
2022-09-10T05:33:44.820Z,2.73
2022-09-10T05:36:12.603Z,3.03
2022-09-10T05:38:40.945Z,3.00
2022-09-10T05:41:11.073Z,3.03
2022-09-10T05:43:42.092Z,3.03
2022-09-10T05:46:10.469Z,2.77
2022-09-10T05:48:41.865Z,2.60
2022-09-10T05:51:10.635Z,2.60
2022-09-10T05:53:38.302Z,2.57
2022-09-10T05:56:07.585Z,3.07
2022-09-10T05:58:35.744Z,3.30
2022-09-10T06:01:02.555Z,3.27
2022-09-10T06:03:30.841Z,2.83
2022-09-10T06:06:00.963Z,3.03
2022-09-10T06:08:32.424Z,3.40
2022-09-10T06:11:07.679Z,3.30
2022-09-10T06:13:39.859Z,3.27
2022-09-10T06:16:07.521Z,2.90
2022-09-10T06:18:34.891Z,3.00
2022-09-10T06:21:04.374Z,3.10
2022-09-10T06:23:31.461Z,3.20
2022-09-10T06:26:09.992Z,3.03
2022-09-10T06:28:37.809Z,3.00
2022-09-10T06:31:06.557Z,2.57
2022-09-10T06:33:35.023Z,3.40
2022-09-10T06:36:02.124Z,3.30
2022-09-10T06:38:30.120Z,2.93
2022-09-10T06:41:00.514Z,3.40
2022-09-10T06:43:33.137Z,3.37
2022-09-10T06:47:02.292Z,3.40
2022-09-10T06:49:11.710Z,2.90
2022-09-10T06:51:39.862Z,2.70
2022-09-10T06:54:08.945Z,2.80
2022-09-10T06:56:35.563Z,3.10
2022-09-10T06:59:04.040Z,3.17
2022-09-10T07:01:35.738Z,3.60
2022-09-10T07:04:02.825Z,3.17
2022-09-10T07:06:34.850Z,3.83
2022-09-10T07:09:08.250Z,4.20
2022-09-10T07:11:42.043Z,4.17
2022-09-10T07:14:14.945Z,4.00
2022-09-10T07:16:41.839Z,4.40
2022-09-10T07:19:09.772Z,4.00
2022-09-10T07:21:40.679Z,4.40
2022-09-10T07:24:12.415Z,4.77
2022-09-10T07:26:41.472Z,4.80
2022-09-10T07:29:08.038Z,5.17
2022-09-10T07:31:35.591Z,5.37
2022-09-10T07:34:08.675Z,5.17
2022-09-10T07:36:36.220Z,5.10
2022-09-10T07:39:04.616Z,5.50
2022-09-10T07:41:35.045Z,5.43
2022-09-10T07:44:03.699Z,5.40
2022-09-10T07:46:37.956Z,5.83
2022-09-10T07:49:09.099Z,5.70
2022-09-10T07:51:35.879Z,5.50
2022-09-10T07:54:02.560Z,5.73
2022-09-10T07:56:34.557Z,6.00
2022-09-10T07:59:03.555Z,6.00
2022-09-10T08:01:37.817Z,5.80
2022-09-10T08:04:07.305Z,5.50
2022-09-10T08:06:36.637Z,6.60
2022-09-10T08:09:07.793Z,6.37
2022-09-10T08:11:40.080Z,6.27
2022-09-10T08:14:09.864Z,6.37
2022-09-10T08:16:36.538Z,6.00
2022-09-10T08:19:09.964Z,5.97
2022-09-10T08:21:38.529Z,6.43
2022-09-10T08:24:05.724Z,6.23
2022-09-10T08:26:34.148Z,6.17
2022-09-10T08:29:03.011Z,6.20
2022-09-10T08:31:30.651Z,5.57
2022-09-10T08:34:13.781Z,6.30
2022-09-10T08:36:43.989Z,6.47
2022-09-10T08:39:11.850Z,7.40
2022-09-10T08:41:41.470Z,6.57
2022-09-10T08:44:37.744Z,7.20
2022-09-10T08:47:07.428Z,6.87
2022-09-10T08:49:44.651Z,6.60
2022-09-10T08:52:24.843Z,6.83
2022-09-10T08:55:00.012Z,7.87
2022-09-10T08:57:30.695Z,7.87
2022-09-10T08:59:59.513Z,7.63
2022-09-10T09:02:49.300Z,7.80
2022-09-10T09:05:20.196Z,7.43
2022-09-10T09:07:51.018Z,7.30
2022-09-10T09:10:20.878Z,7.50
2022-09-10T09:13:02.775Z,7.20
2022-09-10T09:15:41.666Z,7.03
2022-09-10T09:18:19.725Z,5.97
2022-09-10T09:20:48.931Z,6.73
2022-09-10T09:23:20.294Z,6.03
2022-09-10T09:25:49.203Z,6.53
2022-09-10T09:28:22.006Z,6.43
2022-09-10T09:30:49.741Z,6.07
2022-09-10T09:33:20.089Z,5.23
2022-09-10T09:35:54.157Z,6.40
2022-09-10T09:38:30.762Z,6.07
2022-09-10T09:41:00.320Z,5.57
2022-09-10T09:43:42.588Z,5.70
2022-09-10T09:46:17.718Z,5.40
2022-09-10T09:48:47.794Z,6.10
2022-09-10T09:51:20.888Z,6.07
2022-09-10T09:54:06.185Z,5.80
2022-09-10T09:56:42.197Z,6.03
2022-09-10T09:59:14.885Z,6.50
2022-09-10T10:01:42.818Z,5.70
2022-09-10T10:04:20.156Z,6.30
2022-09-10T10:06:47.634Z,5.80
2022-09-10T10:09:21.612Z,5.63
2022-09-10T10:11:53.747Z,6.37
2022-09-10T10:14:20.294Z,6.30
2022-09-10T10:16:48.583Z,6.33
2022-09-10T10:19:32.842Z,5.73
2022-09-10T10:22:14.597Z,6.00
2022-09-10T10:24:42.605Z,5.90
2022-09-10T10:27:16.722Z,6.33
2022-09-10T10:29:51.373Z,5.80
2022-09-10T10:32:20.091Z,6.00
2022-09-10T10:34:47.445Z,5.90
2022-09-10T10:37:25.906Z,6.57
2022-09-10T10:40:04.978Z,6.47
2022-09-10T10:42:36.405Z,6.43
2022-09-10T10:45:09.015Z,5.77
2022-09-10T10:47:48.286Z,5.70
2022-09-10T10:50:22.028Z,5.60
2022-09-10T10:52:48.599Z,5.67
2022-09-10T10:55:15.174Z,6.13
2022-09-10T10:57:51.080Z,5.90
2022-09-10T11:00:19.844Z,5.90
2022-09-10T11:02:50.558Z,5.80
2022-09-10T11:05:38.668Z,5.63
2022-09-10T11:08:10.512Z,6.03
2022-09-10T11:10:39.713Z,5.87
2022-09-10T11:13:14.950Z,5.70
2022-09-10T11:15:48.716Z,5.83
2022-09-10T11:18:20.643Z,6.07
2022-09-10T11:21:00.628Z,6.00
2022-09-10T11:23:27.924Z,5.30
2022-09-10T11:26:00.832Z,4.97
2022-09-10T11:28:40.753Z,5.10
2022-09-10T11:31:14.235Z,4.83
2022-09-10T11:33:46.284Z,5.70
2022-09-10T11:36:20.789Z,5.50
2022-09-10T11:38:50.190Z,5.70
2022-09-10T11:41:19.913Z,6.27
2022-09-10T11:43:52.573Z,6.33
2022-09-10T11:46:35.459Z,7.67
2022-09-10T11:49:05.213Z,7.77
2022-09-10T11:51:37.067Z,7.77
2022-09-10T11:54:05.068Z,7.80
2022-09-10T11:56:42.522Z,8.13
2022-09-10T11:59:27.867Z,7.97
2022-09-10T12:01:57.736Z,8.60
2022-09-10T12:04:47.652Z,9.67
2022-09-10T12:07:36.629Z,10.23
2022-09-10T12:10:08.193Z,10.30
2022-09-10T12:12:51.099Z,10.97
2022-09-10T12:15:19.873Z,11.53
2022-09-10T12:17:49.080Z,12.47
2022-09-10T12:20:21.104Z,13.23
2022-09-10T12:22:51.831Z,14.07
2022-09-10T12:25:21.512Z,14.83
2022-09-10T12:27:49.631Z,15.43
2022-09-10T12:30:39.575Z,15.27
2022-09-10T12:33:12.321Z,15.37
2022-09-10T12:35:46.516Z,15.53
2022-09-10T12:38:31.907Z,14.63
2022-09-10T12:40:59.145Z,14.50
2022-09-10T12:43:41.303Z,15.47
2022-09-10T12:46:12.730Z,13.73
2022-09-10T12:48:40.084Z,14.17
2022-09-10T12:51:19.011Z,13.63
2022-09-10T12:54:00.651Z,13.67
2022-09-10T12:56:44.084Z,14.23
2022-09-10T12:59:29.058Z,13.90
2022-09-10T13:01:56.190Z,13.17
2022-09-10T13:04:28.723Z,12.60
2022-09-10T13:06:57.816Z,12.40
2022-09-10T13:09:26.790Z,11.97
2022-09-10T13:11:55.390Z,13.23
2022-09-10T13:14:25.922Z,12.37
2022-09-10T13:16:52.719Z,12.30
2022-09-10T13:19:19.551Z,11.37
2022-09-10T13:21:48.027Z,10.63
2022-09-10T13:24:33.971Z,11.30
2022-09-10T13:27:04.167Z,11.63
2022-09-10T13:29:35.743Z,11.50
2022-09-10T13:32:15.280Z,11.17
2022-09-10T13:35:00.697Z,11.10
2022-09-10T13:37:31.712Z,11.13
2022-09-10T13:40:01.396Z,10.70
2022-09-10T13:42:43.492Z,11.40
2022-09-10T13:45:13.281Z,11.80
2022-09-10T13:47:42.906Z,11.70
2022-09-10T13:50:20.974Z,10.53
2022-09-10T13:52:49.292Z,11.37
2022-09-10T13:55:24.796Z,10.20
2022-09-10T13:57:52.351Z,8.77
2022-09-10T14:00:23.803Z,8.23
2022-09-10T14:02:52.961Z,8.50
2022-09-10T14:05:26.674Z,8.10
2022-09-10T14:07:54.931Z,8.57
2022-09-10T14:10:21.574Z,7.17
2022-09-10T14:12:49.348Z,6.77
2022-09-10T14:15:18.066Z,6.43
2022-09-10T14:17:48.003Z,5.50
2022-09-10T14:20:28.442Z,5.17
2022-09-10T14:22:59.937Z,5.33
2022-09-10T14:25:29.864Z,5.23
2022-09-10T14:28:11.030Z,5.27
2022-09-10T14:30:38.575Z,4.63
2022-09-10T14:33:27.793Z,5.00
2022-09-10T14:35:54.492Z,4.40
2022-09-10T14:38:27.033Z,4.43
2022-09-10T14:41:08.696Z,3.60
2022-09-10T14:43:38.085Z,3.50
2022-09-10T14:46:08.688Z,3.00
2022-09-10T14:48:38.795Z,2.80
2022-09-10T14:51:18.831Z,2.50
2022-09-10T14:53:46.581Z,2.60
2022-09-10T14:56:19.700Z,2.47
2022-09-10T14:58:46.887Z,2.40
2022-09-10T15:01:13.676Z,2.57
2022-09-10T15:03:42.317Z,2.23
2022-09-10T15:06:09.853Z,2.30
2022-09-10T15:08:37.075Z,2.13
2022-09-10T15:11:06.664Z,2.27
2022-09-10T15:13:37.332Z,2.40
2022-09-10T15:16:04.037Z,2.30
2022-09-10T15:18:31.168Z,2.10
2022-09-10T15:21:00.323Z,2.00
2022-09-10T15:23:28.305Z,1.73
2022-09-10T15:25:56.069Z,2.30
2022-09-10T15:28:22.715Z,1.87
2022-09-10T15:30:49.331Z,1.93
2022-09-10T15:33:15.930Z,1.93
2022-09-10T15:35:43.511Z,2.17
2022-09-10T15:38:12.949Z,2.00
2022-09-10T15:40:39.581Z,2.43
2022-09-10T15:43:06.559Z,2.20
2022-09-10T15:45:34.945Z,2.27
2022-09-10T15:48:02.296Z,2.33
2022-09-10T15:50:28.946Z,2.77
2022-09-10T15:52:56.252Z,3.00
2022-09-10T15:55:23.315Z,2.40
2022-09-10T15:57:50.552Z,2.03
2022-09-10T16:00:18.113Z,2.30
2022-09-10T16:02:48.047Z,4.13
2022-09-10T16:05:16.138Z,5.53
2022-09-10T16:07:43.785Z,4.10
2022-09-10T16:10:10.994Z,3.83
2022-09-10T16:12:37.730Z,4.20
2022-09-10T16:15:04.923Z,4.03
2022-09-10T16:17:32.278Z,3.90
2022-09-10T16:20:00.283Z,4.10
2022-09-10T16:22:27.248Z,3.73
2022-09-10T16:24:54.060Z,3.93
2022-09-10T16:27:20.702Z,3.53
2022-09-10T16:29:48.430Z,4.33
2022-09-10T16:32:15.043Z,4.40
2022-09-10T16:34:42.119Z,4.60
2022-09-10T16:37:08.934Z,4.70
2022-09-10T16:39:35.827Z,5.40
2022-09-10T16:42:02.757Z,4.87
2022-09-10T16:44:29.664Z,5.23
2022-09-10T16:46:59.025Z,4.97
2022-09-10T16:49:25.883Z,5.10
2022-09-10T16:51:52.465Z,4.97
2022-09-10T16:54:20.945Z,5.57
2022-09-10T16:56:47.980Z,5.00
2022-09-10T16:59:17.871Z,5.10
2022-09-10T17:01:45.420Z,5.07
2022-09-10T17:04:24.646Z,5.40
2022-09-10T17:06:52.875Z,5.40
2022-09-10T17:09:19.658Z,5.47
2022-09-10T17:11:46.540Z,5.20
2022-09-10T17:14:13.071Z,5.63
2022-09-10T17:16:40.517Z,5.97
2022-09-10T17:19:18.436Z,6.00
2022-09-10T17:21:51.020Z,5.67
2022-09-10T17:24:18.182Z,6.10
2022-09-10T17:26:46.056Z,5.97
2022-09-10T17:29:17.132Z,6.40
2022-09-10T17:31:45.068Z,6.43
2022-09-10T17:34:13.208Z,6.40
2022-09-10T17:36:40.839Z,6.90
2022-09-10T17:39:07.455Z,6.83
2022-09-10T17:41:34.130Z,7.23
2022-09-10T17:44:01.291Z,7.50
2022-09-10T17:46:28.306Z,7.20
2022-09-10T17:48:55.186Z,7.30
2022-09-10T17:51:26.112Z,7.50
2022-09-10T17:53:54.126Z,7.57
2022-09-10T17:56:22.093Z,7.60
2022-09-10T17:58:49.226Z,7.77
2022-09-10T18:01:23.552Z,8.27
2022-09-10T18:03:50.921Z,8.67
2022-09-10T18:06:17.499Z,8.87
2022-09-10T18:08:44.285Z,8.73
2022-09-10T18:11:12.944Z,8.67
2022-09-10T18:13:39.816Z,8.50
2022-09-10T18:16:07.488Z,8.07
2022-09-10T18:18:35.945Z,8.20
2022-09-10T18:21:12.641Z,8.23
2022-09-10T18:23:39.472Z,8.97
2022-09-10T18:26:16.080Z,8.17
2022-09-10T18:28:43.451Z,9.23
2022-09-10T18:31:11.138Z,9.13
2022-09-10T18:33:38.679Z,9.17
2022-09-10T18:36:16.260Z,9.37
2022-09-10T18:38:43.776Z,9.17
2022-09-10T18:41:22.081Z,9.13
2022-09-10T18:43:49.215Z,9.03
2022-09-10T18:46:16.154Z,8.97
2022-09-10T18:48:44.057Z,8.83
2022-09-10T18:51:11.721Z,9.43
2022-09-10T18:53:38.726Z,9.10
2022-09-10T18:56:06.937Z,8.77
2022-09-10T18:58:35.908Z,9.33
2022-09-10T19:01:06.013Z,8.73
2022-09-10T19:03:37.071Z,7.67
2022-09-10T19:06:05.984Z,7.60
2022-09-10T19:08:34.043Z,9.53
2022-09-10T19:11:02.166Z,8.23
2022-09-10T19:13:29.970Z,8.30
2022-09-10T19:15:57.060Z,8.73
2022-09-10T19:18:23.621Z,7.67
2022-09-10T19:20:50.215Z,8.13
2022-09-10T19:23:19.774Z,7.93
2022-09-10T19:25:51.318Z,7.67
2022-09-10T19:28:17.872Z,7.87
2022-09-10T19:30:44.447Z,8.13
2022-09-10T19:33:12.646Z,7.50
2022-09-10T19:35:39.257Z,8.03
2022-09-10T19:38:21.274Z,7.87
2022-09-10T19:41:02.497Z,7.73
2022-09-10T19:43:29.135Z,7.40
2022-09-10T19:45:56.367Z,7.63
2022-09-10T19:48:23.626Z,7.07
2022-09-10T19:50:50.465Z,7.63
2022-09-10T19:53:17.285Z,8.17
2022-09-10T19:55:43.880Z,8.23
2022-09-10T19:58:10.485Z,8.53
2022-09-10T20:00:46.863Z,8.60
2022-09-10T20:03:14.600Z,9.60
2022-09-10T20:05:46.276Z,9.60
2022-09-10T20:08:12.997Z,10.43
2022-09-10T20:10:39.585Z,10.23
2022-09-10T20:13:08.093Z,10.27
2022-09-10T20:15:41.203Z,10.27
2022-09-10T20:18:11.320Z,10.40
2022-09-10T20:20:38.094Z,9.60
2022-09-10T20:23:08.926Z,11.03
2022-09-10T20:25:36.154Z,10.57
2022-09-10T20:28:04.156Z,10.70
2022-09-10T20:30:31.131Z,11.23
2022-09-10T20:32:58.458Z,11.20
2022-09-10T20:35:27.272Z,11.50
2022-09-10T20:37:53.974Z,11.67
2022-09-10T20:40:20.589Z,12.17
2022-09-10T20:42:47.258Z,12.30
2022-09-10T20:45:13.943Z,12.80
2022-09-10T20:47:43.130Z,12.23
2022-09-10T20:50:13.348Z,12.93
2022-09-10T20:52:40.261Z,12.67
2022-09-10T20:55:07.147Z,13.23
2022-09-10T20:57:34.028Z,13.77
2022-09-10T21:00:00.929Z,14.53
2022-09-10T21:02:27.719Z,13.73
2022-09-10T21:04:54.415Z,13.97
2022-09-10T21:07:20.994Z,14.13
2022-09-10T21:09:47.636Z,14.07
2022-09-10T21:12:14.236Z,14.80
2022-09-10T21:14:40.845Z,14.37
2022-09-10T21:17:08.967Z,14.60
2022-09-10T21:19:35.519Z,14.27
2022-09-10T21:22:02.877Z,14.27
2022-09-10T21:24:29.441Z,14.70
2022-09-10T21:26:56.334Z,15.47
2022-09-10T21:29:23.138Z,15.00
2022-09-10T21:31:50.760Z,14.37
2022-09-10T21:34:17.565Z,15.37
2022-09-10T21:36:44.190Z,15.77
2022-09-10T21:39:14.935Z,15.70
2022-09-10T21:41:46.149Z,15.10
2022-09-10T21:44:14.276Z,14.90
2022-09-10T21:46:44.559Z,15.97
2022-09-10T21:49:11.647Z,15.17
2022-09-10T21:51:38.220Z,15.43
2022-09-10T21:54:04.922Z,15.83
2022-09-10T21:56:31.954Z,16.40
2022-09-10T21:58:59.273Z,15.83
2022-09-10T22:01:27.899Z,16.13
2022-09-10T22:03:59.614Z,16.77
2022-09-10T22:06:27.798Z,18.03
2022-09-10T22:08:58.112Z,17.23
2022-09-10T22:11:29.291Z,18.80
2022-09-10T22:14:00.850Z,21.63
2022-09-10T22:16:28.130Z,32.90
2022-09-10T22:18:58.441Z,45.53
2022-09-10T22:21:25.209Z,59.90
2022-09-10T22:23:51.855Z,67.83
2022-09-10T22:26:20.257Z,73.00
2022-09-10T22:28:47.219Z,69.33
2022-09-10T22:31:19.215Z,64.27
2022-09-10T22:33:47.237Z,56.77
2022-09-10T22:36:15.360Z,52.67
2022-09-10T22:38:42.838Z,52.13
2022-09-10T22:41:10.297Z,51.50
2022-09-10T22:43:40.455Z,50.53
2022-09-10T22:46:07.448Z,49.40
2022-09-10T22:48:34.784Z,48.20
2022-09-10T22:51:02.262Z,47.10
2022-09-10T22:53:29.121Z,44.47
2022-09-10T22:55:55.705Z,40.60
2022-09-10T22:58:22.456Z,39.33
2022-09-10T23:00:49.451Z,36.77
2022-09-10T23:03:16.279Z,36.07
2022-09-10T23:05:42.845Z,34.50
2022-09-10T23:08:09.375Z,35.00
2022-09-10T23:10:36.117Z,34.63
2022-09-10T23:13:02.959Z,35.30
2022-09-10T23:15:32.973Z,34.43
2022-09-10T23:17:59.862Z,34.50
2022-09-10T23:20:27.302Z,34.50
2022-09-10T23:22:53.841Z,34.47
2022-09-10T23:25:20.370Z,35.20
2022-09-10T23:27:51.285Z,34.77
2022-09-10T23:30:17.998Z,33.83
2022-09-10T23:32:44.820Z,33.00
2022-09-10T23:35:11.541Z,30.97
2022-09-10T23:37:38.450Z,31.80
2022-09-10T23:40:05.573Z,32.50
2022-09-10T23:42:33.020Z,30.70
2022-09-10T23:44:59.628Z,31.03
2022-09-10T23:47:27.034Z,32.00
2022-09-10T23:49:53.665Z,32.93
2022-09-10T23:52:20.573Z,32.43
2022-09-10T23:54:47.486Z,31.43
2022-09-10T23:57:14.073Z,31.50
2022-09-10T23:59:41.088Z,31.90
